createdAt,value
2019-02-04T00:00:59.835Z,97984.88
2019-02-04T00:02:01.206Z,97987.48
2019-02-04T00:03:06.414Z,97988.64
2019-02-04T00:04:09.114Z,97988.64
2019-02-04T00:05:10.372Z,97990.84
2019-02-04T00:06:11.652Z,97983.20
2019-02-04T00:07:12.839Z,97978.81
2019-02-04T00:08:14.052Z,97978.81
2019-02-04T00:09:15.692Z,97985.58
2019-02-04T00:10:17.099Z,97993.80
2019-02-04T00:11:18.279Z,97993.80
2019-02-04T00:12:19.631Z,98003.18
2019-02-04T00:13:20.896Z,98011.09
2019-02-04T00:14:22.855Z,98011.09
2019-02-04T00:15:24.972Z,98017.56
2019-02-04T00:16:26.415Z,98017.56
2019-02-04T00:17:27.622Z,98019.83
2019-02-04T00:18:29.284Z,98020.48
2019-02-04T00:19:30.665Z,98024.02
2019-02-04T00:20:32.028Z,98024.02
2019-02-04T00:21:33.583Z,98020.62
2019-02-04T00:22:34.984Z,98026.80
2019-02-04T00:23:36.323Z,98027.92
2019-02-04T00:24:37.574Z,98036.72
2019-02-04T00:25:38.844Z,98042.13
2019-02-04T00:26:51.093Z,98042.13
2019-02-04T00:27:43.362Z,98055.39
2019-02-04T00:28:45.052Z,98052.21
2019-02-04T00:29:48.543Z,98052.62
2019-02-04T00:30:50.373Z,98052.62
2019-02-04T00:31:51.831Z,98041.42
2019-02-04T00:32:53.094Z,98046.73
2019-02-04T00:33:54.468Z,98051.09
2019-02-04T00:34:55.674Z,98044.11
2019-02-04T00:35:56.897Z,98058.92
2019-02-04T00:36:58.150Z,98055.56
2019-02-04T00:37:59.454Z,98053.47
2019-02-04T00:39:02.519Z,98053.47
2019-02-04T00:40:15.266Z,98052.95
2019-02-04T00:41:16.430Z,98052.95
2019-02-04T00:42:17.688Z,98056.75
2019-02-04T00:43:18.842Z,98056.75
2019-02-04T00:44:20.125Z,98065.73
2019-02-04T00:45:21.441Z,98068.88
2019-02-04T00:46:22.712Z,98063.70
2019-02-04T00:47:23.960Z,98070.86
2019-02-04T00:48:25.498Z,98079.59
2019-02-04T00:49:26.662Z,98076.55
2019-02-04T00:50:28.338Z,98086.53
2019-02-04T00:51:29.511Z,98079.91
2019-02-04T00:52:30.782Z,98082.06
2019-02-04T00:53:31.956Z,98082.06
2019-02-04T00:54:33.266Z,98089.89
2019-02-04T00:55:34.515Z,98099.31
2019-02-04T00:56:35.877Z,98098.48
2019-02-04T00:57:37.169Z,98097.64
2019-02-04T00:58:38.581Z,98097.02
2019-02-04T00:59:40.170Z,98105.16
2019-02-04T01:00:41.380Z,98102.01
2019-02-04T01:01:42.741Z,98102.01
2019-02-04T01:02:44.244Z,98101.03
2019-02-04T01:03:45.669Z,98110.67
2019-02-04T01:04:46.841Z,98110.67
2019-02-04T01:05:48.402Z,98107.49
2019-02-04T01:06:49.830Z,98107.49
2019-02-04T01:07:51.003Z,98119.22
2019-02-04T01:08:53.191Z,98119.99
2019-02-04T01:09:54.442Z,98119.99
2019-02-04T01:10:55.637Z,98133.09
2019-02-04T01:11:57.162Z,98139.48
2019-02-04T01:12:58.504Z,98140.63
2019-02-04T01:13:59.756Z,98144.09
2019-02-04T01:15:01.202Z,98149.08
2019-02-04T01:16:02.734Z,98141.92
2019-02-04T01:17:03.940Z,98141.92
2019-02-04T01:18:05.689Z,98146.25
2019-02-04T01:19:07.262Z,98145.62
2019-02-04T01:20:12.349Z,98144.93
2019-02-04T01:21:13.789Z,98151.56
2019-02-04T01:22:15.045Z,98156.38
2019-02-04T01:23:16.303Z,98155.86
2019-02-04T01:24:17.595Z,98154.53
2019-02-04T01:25:19.029Z,98159.52
2019-02-04T01:26:20.374Z,98161.34
2019-02-04T01:27:21.577Z,98158.20
2019-02-04T01:28:22.873Z,98163.54
2019-02-04T01:29:24.684Z,98164.20
2019-02-04T01:30:25.984Z,98167.48
2019-02-04T01:31:27.669Z,98172.45
2019-02-04T01:32:29.137Z,98171.78
2019-02-04T01:33:30.474Z,98174.82
2019-02-04T01:34:31.888Z,98172.80
2019-02-04T01:35:33.451Z,98177.47
2019-02-04T01:36:34.724Z,98177.09
2019-02-04T01:37:36.356Z,98180.41
2019-02-04T01:38:38.034Z,98180.06
2019-02-04T01:39:39.595Z,98180.06
2019-02-04T01:40:40.983Z,98184.19
2019-02-04T01:41:42.457Z,98184.19
2019-02-04T01:42:43.707Z,98195.98
2019-02-04T01:43:44.936Z,98196.65
2019-02-04T01:44:46.168Z,98190.82
2019-02-04T01:45:47.600Z,98190.82
2019-02-04T01:46:51.538Z,98195.67
2019-02-04T01:47:52.085Z,98199.34
2019-02-04T01:48:53.858Z,98200.98
2019-02-04T01:49:55.414Z,98205.80
2019-02-04T01:50:56.665Z,98197.00
2019-02-04T01:51:57.921Z,98196.05
2019-02-04T01:52:59.330Z,98202.63
2019-02-04T01:54:00.658Z,98202.63
2019-02-04T01:55:02.215Z,98206.98
2019-02-04T01:56:03.691Z,98207.47
2019-02-04T01:57:05.067Z,98201.50
2019-02-04T01:58:06.632Z,98210.65
2019-02-04T01:59:08.035Z,98212.00
2019-02-04T02:00:18.839Z,98212.00
2019-02-04T02:01:20.089Z,98212.61
2019-02-04T02:02:21.415Z,98212.98
2019-02-04T02:03:22.909Z,98223.08
2019-02-04T02:04:24.266Z,98223.08
2019-02-04T02:05:25.545Z,98228.70
2019-02-04T02:06:27.278Z,98229.16
2019-02-04T02:07:28.661Z,98229.16
2019-02-04T02:08:30.113Z,98232.89
2019-02-04T02:09:31.874Z,98233.53
2019-02-04T02:10:33.170Z,98233.53
2019-02-04T02:11:34.483Z,98232.55
2019-02-04T02:12:36.081Z,98236.59
2019-02-04T02:13:37.416Z,98237.22
2019-02-04T02:14:38.817Z,98246.51
2019-02-04T02:15:40.273Z,98251.95
2019-02-04T02:16:41.471Z,98251.95
2019-02-04T02:17:44.783Z,98249.80
2019-02-04T02:18:46.429Z,98249.80
2019-02-04T02:19:47.875Z,98249.63
2019-02-04T02:20:49.253Z,98257.44
2019-02-04T02:21:50.533Z,98257.44
2019-02-04T02:22:51.803Z,98256.98
2019-02-04T02:23:53.350Z,98256.98
2019-02-04T02:24:54.568Z,98262.43
2019-02-04T02:25:55.934Z,98259.28
2019-02-04T02:26:57.214Z,98266.09
2019-02-04T02:27:58.405Z,98266.09
2019-02-04T02:29:00.211Z,98266.98
2019-02-04T02:30:03.409Z,98266.84
2019-02-04T02:31:06.611Z,98275.44
2019-02-04T02:32:07.830Z,98282.68
2019-02-04T02:33:09.823Z,98284.06
2019-02-04T02:34:11.032Z,98289.69
2019-02-04T02:35:12.428Z,98289.69
2019-02-04T02:36:13.636Z,98292.17
2019-02-04T02:37:15.074Z,98289.69
2019-02-04T02:38:16.691Z,98297.19
2019-02-04T02:39:18.104Z,98302.41
2019-02-04T02:40:30.815Z,98305.09
2019-02-04T02:41:32.443Z,98305.09
2019-02-04T02:42:33.703Z,98312.39
2019-02-04T02:43:34.944Z,98313.20
2019-02-04T02:44:36.400Z,98309.22
2019-02-04T02:45:37.852Z,98318.16
2019-02-04T02:46:39.068Z,98318.16
2019-02-04T02:47:40.540Z,98326.45
2019-02-04T02:48:41.876Z,98324.99
2019-02-04T02:49:43.142Z,98326.20
2019-02-04T02:50:45.043Z,98329.83
2019-02-04T02:51:46.487Z,98337.77
2019-02-04T02:52:47.684Z,98337.77
2019-02-04T02:53:49.072Z,98346.59
2019-02-04T02:54:50.318Z,98349.02
2019-02-04T02:55:51.561Z,98349.02
2019-02-04T02:56:52.745Z,98358.66
2019-02-04T02:57:54.205Z,98362.30
2019-02-04T02:58:55.612Z,98364.14
2019-02-04T02:59:57.210Z,98365.62
2019-02-04T03:00:58.441Z,98370.31
2019-02-04T03:01:59.990Z,98374.14
2019-02-04T03:03:01.174Z,98374.28
2019-02-04T03:04:02.649Z,98374.62
2019-02-04T03:05:08.021Z,98381.23
2019-02-04T03:06:09.321Z,98381.56
2019-02-04T03:07:10.575Z,98378.92
2019-02-04T03:08:11.848Z,98376.98
2019-02-04T03:09:13.099Z,98381.16
2019-02-04T03:10:20.689Z,98386.25
2019-02-04T03:11:22.471Z,98386.27
2019-02-04T03:12:23.724Z,98389.12
2019-02-04T03:13:25.913Z,98393.57
2019-02-04T03:14:27.161Z,98402.50
2019-02-04T03:15:28.351Z,98389.44
2019-02-04T03:16:29.832Z,98395.53
2019-02-04T03:17:31.165Z,98406.16
2019-02-04T03:18:32.518Z,98403.36
2019-02-04T03:19:33.746Z,98403.36
2019-02-04T03:20:35.429Z,98413.02
2019-02-04T03:21:37.043Z,98407.86
2019-02-04T03:22:38.522Z,98416.84
2019-02-04T03:23:39.771Z,98421.45
2019-02-04T03:24:41.073Z,98419.49
2019-02-04T03:25:42.533Z,98419.49
2019-02-04T03:26:43.961Z,98424.80
2019-02-04T03:27:45.224Z,98428.26
2019-02-04T03:28:46.641Z,98428.26
2019-02-04T03:29:47.848Z,98434.41
2019-02-04T03:30:49.502Z,98436.27
2019-02-04T03:31:50.684Z,98432.08
2019-02-04T03:32:52.329Z,98433.41
2019-02-04T03:33:53.799Z,98431.81
2019-02-04T03:34:55.046Z,98435.10
2019-02-04T03:35:56.400Z,98438.92
2019-02-04T03:36:57.802Z,98438.92
2019-02-04T03:37:58.984Z,98436.76
2019-02-04T03:39:00.480Z,98432.13
2019-02-04T03:40:04.842Z,98434.95
2019-02-04T03:41:06.548Z,98429.81
2019-02-04T03:42:07.740Z,98435.78
2019-02-04T03:43:09.014Z,98444.40
2019-02-04T03:44:10.560Z,98446.41
2019-02-04T03:45:11.979Z,98446.41
2019-02-04T03:46:13.173Z,98453.37
2019-02-04T03:47:14.441Z,98458.34
2019-02-04T03:48:15.638Z,98467.00
2019-02-04T03:49:18.000Z,98465.83
2019-02-04T03:50:19.314Z,98469.65
2019-02-04T03:51:20.534Z,98479.41
2019-02-04T03:52:22.028Z,98487.52
2019-02-04T03:53:23.786Z,98477.08
2019-02-04T03:54:25.091Z,98491.83
2019-02-04T03:55:27.332Z,98489.17
2019-02-04T03:56:28.520Z,98489.17
2019-02-04T03:57:29.834Z,98492.51
2019-02-04T03:58:31.035Z,98501.63
2019-02-04T03:59:32.378Z,98501.63
2019-02-04T04:00:34.770Z,98506.77
2019-02-04T04:01:36.285Z,98496.48
2019-02-04T04:02:37.671Z,98496.48
2019-02-04T04:03:39.265Z,98508.43
2019-02-04T04:04:40.494Z,98511.72
2019-02-04T04:05:41.856Z,98516.70
2019-02-04T04:06:43.073Z,98516.70
2019-02-04T04:07:44.270Z,98517.39
2019-02-04T04:08:45.465Z,98524.18
2019-02-04T04:09:46.796Z,98526.99
2019-02-04T04:10:48.401Z,98526.99
2019-02-04T04:11:49.861Z,98535.27
2019-02-04T04:12:51.060Z,98538.93
2019-02-04T04:13:52.435Z,98538.93
2019-02-04T04:14:54.139Z,98531.14
2019-02-04T04:15:55.423Z,98530.97
2019-02-04T04:16:56.677Z,98540.42
2019-02-04T04:17:58.137Z,98545.41
2019-02-04T04:19:01.038Z,98547.22
2019-02-04T04:20:05.273Z,98547.22
2019-02-04T04:21:07.164Z,98556.50
2019-02-04T04:22:08.420Z,98552.20
2019-02-04T04:23:09.647Z,98549.55
2019-02-04T04:24:10.962Z,98553.69
2019-02-04T04:25:16.976Z,98562.84
2019-02-04T04:26:18.202Z,98564.16
2019-02-04T04:27:19.460Z,98567.30
2019-02-04T04:28:20.641Z,98567.30
2019-02-04T04:29:22.330Z,98572.09
2019-02-04T04:30:27.279Z,98573.58
2019-02-04T04:31:28.964Z,98573.58
2019-02-04T04:32:30.276Z,98575.09
2019-02-04T04:33:31.496Z,98586.88
2019-02-04T04:34:32.747Z,98586.88
2019-02-04T04:35:33.959Z,98587.20
2019-02-04T04:36:35.249Z,98600.27
2019-02-04T04:37:36.448Z,98596.48
2019-02-04T04:38:37.654Z,98593.83
2019-02-04T04:39:39.490Z,98611.91
2019-02-04T04:40:41.014Z,98611.91
2019-02-04T04:41:42.214Z,98613.39
2019-02-04T04:42:43.900Z,98616.20
2019-02-04T04:43:45.132Z,98616.36
2019-02-04T04:44:46.396Z,98628.45
2019-02-04T04:45:47.650Z,98628.45
2019-02-04T04:46:48.860Z,98633.92
2019-02-04T04:47:50.209Z,98637.74
2019-02-04T04:48:51.465Z,98641.08
2019-02-04T04:49:53.112Z,98641.08
2019-02-04T04:50:54.755Z,98643.05
2019-02-04T04:51:55.966Z,98643.21
2019-02-04T04:52:57.277Z,98643.21
2019-02-04T04:53:58.649Z,98648.83
2019-02-04T04:55:00.104Z,98648.83
2019-02-04T04:56:01.669Z,98654.45
2019-02-04T04:57:03.625Z,98659.28
2019-02-04T04:58:05.445Z,98656.47
2019-02-04T04:59:06.689Z,98659.12
2019-02-04T05:00:11.825Z,98670.88
2019-02-04T05:01:13.599Z,98668.40
2019-02-04T05:02:14.777Z,98672.53
2019-02-04T05:03:16.213Z,98680.17
2019-02-04T05:04:17.563Z,98696.25
2019-02-04T05:05:18.988Z,98688.77
2019-02-04T05:06:20.159Z,98688.77
2019-02-04T05:07:21.977Z,98700.58
2019-02-04T05:08:23.158Z,98695.27
2019-02-04T05:09:24.377Z,98696.25
2019-02-04T05:10:25.979Z,98702.39
2019-02-04T05:11:27.336Z,98694.42
2019-02-04T05:12:28.507Z,98694.42
2019-02-04T05:13:29.999Z,98707.85
2019-02-04T05:14:31.360Z,98707.02
2019-02-04T05:15:32.708Z,98712.16
2019-02-04T05:16:34.006Z,98714.48
2019-02-04T05:17:35.440Z,98714.48
2019-02-04T05:18:38.126Z,98711.30
2019-02-04T05:19:40.047Z,98710.34
2019-02-04T05:20:41.923Z,98713.31
2019-02-04T05:21:43.187Z,98712.65
2019-02-04T05:22:44.573Z,98705.83
2019-02-04T05:23:46.048Z,98712.31
2019-02-04T05:24:47.382Z,98712.31
2019-02-04T05:25:48.898Z,98708.17
2019-02-04T05:26:50.332Z,98708.17
2019-02-04T05:27:51.583Z,98724.91
2019-02-04T05:28:52.828Z,98726.08
2019-02-04T05:29:54.677Z,98730.85
2019-02-04T05:30:55.964Z,98729.38
2019-02-04T05:31:57.238Z,98725.08
2019-02-04T05:32:58.786Z,98725.08
2019-02-04T05:34:00.040Z,98739.16
2019-02-04T05:35:01.302Z,98739.16
2019-02-04T05:36:02.922Z,98751.75
2019-02-04T05:37:04.398Z,98748.44
2019-02-04T05:38:05.656Z,98746.46
2019-02-04T05:39:07.771Z,98758.38
2019-02-04T05:40:11.757Z,98761.70
2019-02-04T05:41:12.982Z,98756.55
2019-02-04T05:42:14.282Z,98756.55
2019-02-04T05:43:15.713Z,98747.44
2019-02-04T05:44:17.247Z,98763.86
2019-02-04T05:45:19.231Z,98768.65
2019-02-04T05:46:20.720Z,98774.95
2019-02-04T05:47:21.905Z,98774.95
2019-02-04T05:48:23.184Z,98785.23
2019-02-04T05:49:24.380Z,98784.05
2019-02-04T05:50:26.035Z,98784.05
2019-02-04T05:51:27.203Z,98794.66
2019-02-04T05:52:28.463Z,98805.11
2019-02-04T05:53:29.811Z,98809.27
2019-02-04T05:54:31.043Z,98816.70
2019-02-04T05:55:33.264Z,98817.70
2019-02-04T05:56:37.057Z,98818.03
2019-02-04T05:57:38.572Z,98818.03
2019-02-04T05:58:40.026Z,98817.56
2019-02-04T05:59:41.423Z,98823.02
2019-02-04T06:00:44.108Z,98824.98
2019-02-04T06:01:45.719Z,98825.98
2019-02-04T06:02:47.240Z,98825.98
2019-02-04T06:03:48.413Z,98825.16
2019-02-04T06:04:49.874Z,98826.16
2019-02-04T06:05:51.442Z,98835.95
2019-02-04T06:06:52.737Z,98836.30
2019-02-04T06:07:54.122Z,98843.74
2019-02-04T06:08:55.584Z,98845.22
2019-02-04T06:09:57.058Z,98845.22
2019-02-04T06:11:00.588Z,98862.46
2019-02-04T06:12:02.020Z,98862.46
2019-02-04T06:13:06.659Z,98864.13
2019-02-04T06:14:07.900Z,98864.13
2019-02-04T06:15:10.967Z,98881.72
2019-02-04T06:16:12.256Z,98878.06
2019-02-04T06:17:13.846Z,98878.06
2019-02-04T06:18:15.192Z,98880.72
2019-02-04T06:19:16.772Z,98891.63
2019-02-04T06:20:20.442Z,98897.93
2019-02-04T06:21:21.958Z,98901.45
2019-02-04T06:22:23.296Z,98901.45
2019-02-04T06:23:24.639Z,98907.11
2019-02-04T06:24:26.138Z,98914.73
2019-02-04T06:25:27.469Z,98915.08
2019-02-04T06:26:28.736Z,98915.08
2019-02-04T06:27:30.154Z,98926.84
2019-02-04T06:28:31.514Z,98924.17
2019-02-04T06:29:33.065Z,98924.17
2019-02-04T06:30:35.099Z,98927.82
2019-02-04T06:31:37.445Z,98936.89
2019-02-04T06:32:38.822Z,98936.89
2019-02-04T06:33:40.083Z,98944.91
2019-02-04T06:34:41.342Z,98939.55
2019-02-04T06:35:42.668Z,98946.02
2019-02-04T06:36:43.989Z,98946.02
2019-02-04T06:37:46.821Z,98952.02
2019-02-04T06:38:48.465Z,98951.66
2019-02-04T06:39:49.851Z,98962.09
2019-02-04T06:40:53.525Z,98962.09
2019-02-04T06:41:54.927Z,98961.94
2019-02-04T06:42:56.265Z,98964.95
2019-02-04T06:43:57.697Z,98976.25
2019-02-04T06:44:58.945Z,98976.25
2019-02-04T06:46:00.621Z,98974.92
2019-02-04T06:47:01.881Z,98979.58
2019-02-04T06:48:03.901Z,98979.58
2019-02-04T06:49:11.990Z,98983.23
2019-02-04T06:50:10.981Z,98983.23
2019-02-04T06:51:12.743Z,98989.18
2019-02-04T06:52:14.110Z,98989.88
2019-02-04T06:53:15.715Z,98987.87
2019-02-04T06:54:16.935Z,98994.99
2019-02-04T06:55:21.548Z,98998.12
2019-02-04T06:56:23.723Z,98998.12
2019-02-04T06:57:24.959Z,98995.78
2019-02-04T06:58:26.201Z,98995.78
2019-02-04T06:59:27.736Z,98992.50
2019-02-04T07:00:28.959Z,98991.98
2019-02-04T07:01:30.931Z,98994.97
2019-02-04T07:02:32.347Z,98991.47
2019-02-04T07:03:33.648Z,98991.47
2019-02-04T07:04:35.125Z,98990.59
2019-02-04T07:05:43.530Z,98990.59
2019-02-04T07:06:41.458Z,98993.49
2019-02-04T07:07:42.664Z,99002.71
2019-02-04T07:08:44.064Z,99008.41
2019-02-04T07:09:45.412Z,99008.41
2019-02-04T07:10:47.028Z,99013.66
2019-02-04T07:11:48.314Z,99013.38
2019-02-04T07:12:49.516Z,99018.30
2019-02-04T07:13:50.741Z,99018.30
2019-02-04T07:14:51.976Z,99025.98
2019-02-04T07:15:53.588Z,99026.64
2019-02-04T07:16:54.890Z,99023.33
2019-02-04T07:18:01.528Z,99023.33
2019-02-04T07:18:59.365Z,99039.91
2019-02-04T07:20:01.016Z,99046.36
2019-02-04T07:21:02.728Z,99048.23
2019-02-04T07:22:04.174Z,99058.17
2019-02-04T07:23:05.492Z,99063.48
2019-02-04T07:24:06.786Z,99063.84
2019-02-04T07:25:10.914Z,99062.66
2019-02-04T07:26:12.259Z,99062.66
2019-02-04T07:27:13.943Z,99068.99
2019-02-04T07:28:15.535Z,99071.10
2019-02-04T07:29:16.739Z,99070.44
2019-02-04T07:30:20.173Z,99072.09
2019-02-04T07:31:22.490Z,99069.93
2019-02-04T07:32:24.125Z,99072.43
2019-02-04T07:33:25.432Z,99072.43
2019-02-04T07:34:26.677Z,99082.20
2019-02-04T07:35:28.148Z,99084.19
2019-02-04T07:36:29.473Z,99084.19
2019-02-04T07:37:30.763Z,99085.09
2019-02-04T07:38:32.392Z,99090.79
2019-02-04T07:39:35.073Z,99089.31
2019-02-04T07:40:36.623Z,99094.71
2019-02-04T07:41:37.885Z,99080.09
2019-02-04T07:42:39.521Z,99083.22
2019-02-04T07:43:40.862Z,99080.09
2019-02-04T07:44:42.061Z,99083.91
2019-02-04T07:45:43.398Z,99073.13
2019-02-04T07:46:44.677Z,99072.43
2019-02-04T07:47:48.303Z,99075.08
2019-02-04T07:48:49.628Z,99075.08
2019-02-04T07:49:51.089Z,99075.08
2019-02-04T07:50:52.326Z,99084.28
2019-02-04T07:51:53.980Z,99090.37
2019-02-04T07:52:55.235Z,99086.72
2019-02-04T07:53:56.830Z,99090.34
2019-02-04T07:54:58.146Z,99094.47
2019-02-04T07:55:59.358Z,99094.47
2019-02-04T07:57:00.655Z,99097.59
2019-02-04T07:58:01.918Z,99103.93
2019-02-04T07:59:03.430Z,99106.58
2019-02-04T08:00:11.775Z,99116.20
2019-02-04T08:01:13.359Z,99118.19
2019-02-04T08:02:14.699Z,99124.16
2019-02-04T08:03:15.907Z,99128.14
2019-02-04T08:04:17.390Z,99137.80
2019-02-04T08:05:18.762Z,99136.83
2019-02-04T08:06:20.162Z,99143.09
2019-02-04T08:07:21.414Z,99144.94
2019-02-04T08:08:22.924Z,99154.41
2019-02-04T08:09:24.453Z,99156.55
2019-02-04T08:10:26.208Z,99156.55
2019-02-04T08:11:27.524Z,99155.07
2019-02-04T08:12:29.094Z,99155.07
2019-02-04T08:13:30.487Z,99157.39
2019-02-04T08:14:31.805Z,99161.41
2019-02-04T08:15:35.327Z,99165.53
2019-02-04T08:16:36.906Z,99171.66
2019-02-04T08:17:38.157Z,99171.66
2019-02-04T08:18:39.685Z,99178.47
2019-02-04T08:19:47.314Z,99174.02
2019-02-04T08:20:44.345Z,99174.02
2019-02-04T08:21:45.964Z,99172.69
2019-02-04T08:22:47.420Z,99173.34
2019-02-04T08:23:48.856Z,99175.67
2019-02-04T08:24:52.066Z,99171.17
2019-02-04T08:25:53.404Z,99171.17
2019-02-04T08:26:54.705Z,99180.31
2019-02-04T08:27:56.259Z,99176.15
2019-02-04T08:28:57.835Z,99176.15
2019-02-04T08:29:59.311Z,99190.78
2019-02-04T08:31:00.827Z,99181.94
2019-02-04T08:32:02.253Z,99181.94
2019-02-04T08:33:03.847Z,99188.56
2019-02-04T08:34:05.365Z,99188.75
2019-02-04T08:35:07.373Z,99192.88
2019-02-04T08:36:11.093Z,99197.89
2019-02-04T08:37:12.595Z,99197.89
2019-02-04T08:38:13.983Z,99190.23
2019-02-04T08:39:15.873Z,99202.87
2019-02-04T08:40:17.986Z,99202.72
2019-02-04T08:41:19.485Z,99209.69
2019-02-04T08:42:20.812Z,99207.18
2019-02-04T08:43:22.127Z,99207.18
2019-02-04T08:44:23.486Z,99219.97
2019-02-04T08:45:25.065Z,99219.97
2019-02-04T08:46:26.518Z,99231.20
2019-02-04T08:47:27.869Z,99230.39
2019-02-04T08:48:29.452Z,99229.41
2019-02-04T08:49:31.356Z,99223.06
2019-02-04T08:50:32.789Z,99231.06
2019-02-04T08:51:34.244Z,99233.05
2019-02-04T08:52:35.496Z,99231.73
2019-02-04T08:53:36.776Z,99231.73
2019-02-04T08:54:38.026Z,99239.87
2019-02-04T08:55:39.526Z,99232.80
2019-02-04T08:56:42.966Z,99236.12
2019-02-04T08:57:44.353Z,99236.12
2019-02-04T08:58:45.855Z,99242.42
2019-02-04T08:59:47.177Z,99242.94
2019-02-04T09:00:48.593Z,99252.70
2019-02-04T09:01:50.079Z,99244.74
2019-02-04T09:02:51.253Z,99244.74
2019-02-04T09:03:52.819Z,99263.47
2019-02-04T09:04:54.101Z,99263.47
2019-02-04T09:05:55.788Z,99276.84
2019-02-04T09:06:57.572Z,99276.84
2019-02-04T09:07:58.886Z,99280.82
2019-02-04T09:09:00.063Z,99285.94
2019-02-04T09:10:01.582Z,99295.08
2019-02-04T09:11:03.526Z,99299.39
2019-02-04T09:12:05.432Z,99299.06
2019-02-04T09:13:06.825Z,99299.25
2019-02-04T09:14:08.416Z,99299.25
2019-02-04T09:15:12.017Z,99305.70
2019-02-04T09:16:13.310Z,99305.70
2019-02-04T09:17:14.568Z,99303.23
2019-02-04T09:18:16.261Z,99303.23
2019-02-04T09:19:17.767Z,99307.16
2019-02-04T09:20:19.229Z,99310.24
2019-02-04T09:21:20.553Z,99315.59
2019-02-04T09:22:21.869Z,99314.22
2019-02-04T09:23:23.152Z,99316.55
2019-02-04T09:24:24.569Z,99313.23
2019-02-04T09:25:26.141Z,99320.67
2019-02-04T09:26:27.410Z,99325.13
2019-02-04T09:27:28.767Z,99323.80
2019-02-04T09:28:30.079Z,99326.97
2019-02-04T09:29:31.901Z,99321.15
2019-02-04T09:30:33.299Z,99321.15
2019-02-04T09:31:34.862Z,99324.31
2019-02-04T09:32:36.311Z,99327.63
2019-02-04T09:33:37.653Z,99332.71
2019-02-04T09:34:39.915Z,99325.69
2019-02-04T09:35:41.242Z,99325.69
2019-02-04T09:36:43.028Z,99322.42
2019-02-04T09:37:45.380Z,99327.16
2019-02-04T09:38:46.913Z,99331.52
2019-02-04T09:39:48.124Z,99337.25
2019-02-04T09:40:49.370Z,99338.06
2019-02-04T09:41:50.754Z,99343.36
2019-02-04T09:42:54.026Z,99343.36
2019-02-04T09:43:55.283Z,99347.96
2019-02-04T09:44:56.572Z,99355.13
2019-02-04T09:45:58.209Z,99355.13
2019-02-04T09:46:59.475Z,99346.16
2019-02-04T09:48:01.470Z,99358.44
2019-02-04T09:49:02.788Z,99364.08
2019-02-04T09:50:07.903Z,99358.77
2019-02-04T09:51:09.258Z,99358.77
2019-02-04T09:52:11.738Z,99370.71
2019-02-04T09:53:12.922Z,99373.31
2019-02-04T09:54:14.430Z,99374.64
2019-02-04T09:55:21.842Z,99372.03
2019-02-04T09:56:23.149Z,99372.03
2019-02-04T09:57:24.786Z,99371.17
2019-02-04T09:58:26.051Z,99368.71
2019-02-04T09:59:27.647Z,99369.11
2019-02-04T10:00:30.883Z,99364.36
2019-02-04T10:01:32.133Z,99368.16
2019-02-04T10:02:33.474Z,99368.16
2019-02-04T10:03:34.700Z,99367.38
2019-02-04T10:04:35.949Z,99370.71
2019-02-04T10:05:37.145Z,99370.71
2019-02-04T10:06:38.651Z,99378.67
2019-02-04T10:07:39.939Z,99383.98
2019-02-04T10:08:41.316Z,99387.95
2019-02-04T10:09:42.943Z,99387.95
2019-02-04T10:10:44.305Z,99377.45
2019-02-04T10:11:45.499Z,99377.45
2019-02-04T10:12:47.213Z,99374.78
2019-02-04T10:13:48.450Z,99375.92
2019-02-04T10:14:49.693Z,99374.27
2019-02-04T10:15:52.507Z,99373.70
2019-02-04T10:16:54.164Z,99373.70
2019-02-04T10:17:55.605Z,99382.36
2019-02-04T10:18:57.098Z,99383.64
2019-02-04T10:19:58.379Z,99383.64
2019-02-04T10:20:59.766Z,99395.59
2019-02-04T10:22:01.085Z,99392.59
2019-02-04T10:23:03.558Z,99387.29
2019-02-04T10:24:05.029Z,99386.17
2019-02-04T10:25:09.512Z,99393.94
2019-02-04T10:26:10.988Z,99396.38
2019-02-04T10:27:12.571Z,99394.73
2019-02-04T10:28:14.746Z,99394.73
2019-02-04T10:29:16.138Z,99381.84
2019-02-04T10:30:19.469Z,99381.84
2019-02-04T10:31:21.123Z,99392.33
2019-02-04T10:32:22.516Z,99387.30
2019-02-04T10:33:23.844Z,99387.30
2019-02-04T10:34:25.182Z,99388.80
2019-02-04T10:35:26.665Z,99382.84
2019-02-04T10:36:27.952Z,99382.84
2019-02-04T10:37:29.727Z,99399.90
2019-02-04T10:38:30.908Z,99405.53
2019-02-04T10:39:32.469Z,99409.80
2019-02-04T10:40:34.049Z,99409.98
2019-02-04T10:41:35.666Z,99411.64
2019-02-04T10:42:37.008Z,99406.05
2019-02-04T10:43:38.436Z,99406.05
2019-02-04T10:44:39.712Z,99419.08
2019-02-04T10:45:41.256Z,99424.39
2019-02-04T10:46:42.877Z,99424.39
2019-02-04T10:47:44.408Z,99415.34
2019-02-04T10:48:45.847Z,99420.14
2019-02-04T10:49:47.376Z,99424.70
2019-02-04T10:50:48.674Z,99432.22
2019-02-04T10:51:49.958Z,99424.59
2019-02-04T10:52:51.261Z,99431.56
2019-02-04T10:53:54.602Z,99429.64
2019-02-04T10:54:56.200Z,99431.95
2019-02-04T10:55:57.622Z,99431.34
2019-02-04T10:56:59.200Z,99431.62
2019-02-04T10:58:00.583Z,99440.38
2019-02-04T10:59:01.950Z,99440.38
2019-02-04T11:00:15.482Z,99436.05
2019-02-04T11:01:16.998Z,99435.55
2019-02-04T11:02:18.388Z,99439.19
2019-02-04T11:03:20.251Z,99440.84
2019-02-04T11:04:21.674Z,99440.52
2019-02-04T11:05:28.957Z,99440.52
2019-02-04T11:06:30.355Z,99440.52
2019-02-04T11:07:31.994Z,99439.86
2019-02-04T11:08:33.712Z,99439.24
2019-02-04T11:09:35.114Z,99442.91
2019-02-04T11:10:36.500Z,99441.19
2019-02-04T11:11:38.018Z,99447.34
2019-02-04T11:12:39.370Z,99446.81
2019-02-04T11:13:40.760Z,99443.11
2019-02-04T11:14:42.146Z,99447.74
2019-02-04T11:15:43.719Z,99445.56
2019-02-04T11:16:46.098Z,99438.85
2019-02-04T11:17:47.550Z,99442.17
2019-02-04T11:18:49.078Z,99442.17
2019-02-04T11:19:50.568Z,99442.77
2019-02-04T11:20:58.172Z,99442.77
2019-02-04T11:21:54.973Z,99447.55
2019-02-04T11:22:56.301Z,99446.42
2019-02-04T11:23:57.807Z,99444.95
2019-02-04T11:24:59.110Z,99444.95
2019-02-04T11:26:01.519Z,99440.17
2019-02-04T11:27:03.172Z,99431.91
2019-02-04T11:28:05.599Z,99436.84
2019-02-04T11:29:07.287Z,99436.84
2019-02-04T11:30:24.382Z,99439.11
2019-02-04T11:31:25.941Z,99437.52
2019-02-04T11:32:27.343Z,99437.52
2019-02-04T11:33:28.656Z,99441.45
2019-02-04T11:34:30.020Z,99440.97
2019-02-04T11:35:31.311Z,99442.63
2019-02-04T11:36:32.578Z,99440.44
2019-02-04T11:37:33.845Z,99445.94
2019-02-04T11:38:36.658Z,99445.94
2019-02-04T11:39:37.960Z,99445.77
2019-02-04T11:40:40.004Z,99452.45
2019-02-04T11:41:41.725Z,99452.45
2019-02-04T11:42:43.232Z,99460.13
2019-02-04T11:43:44.537Z,99460.13
2019-02-04T11:44:45.991Z,99466.37
2019-02-04T11:45:47.388Z,99463.38
2019-02-04T11:46:48.665Z,99466.66
2019-02-04T11:47:50.049Z,99472.66
2019-02-04T11:48:51.414Z,99478.13
2019-02-04T11:49:52.659Z,99477.00
2019-02-04T11:50:55.660Z,99477.00
2019-02-04T11:51:56.888Z,99476.66
2019-02-04T11:52:58.096Z,99477.72
2019-02-04T11:53:59.285Z,99477.72
2019-02-04T11:55:00.865Z,99486.27
2019-02-04T11:56:02.030Z,99479.66
2019-02-04T11:57:03.389Z,99479.66
2019-02-04T11:58:07.660Z,99487.81
2019-02-04T11:59:07.874Z,99483.27
2019-02-04T12:00:12.755Z,99484.23
2019-02-04T12:01:14.484Z,99477.13
2019-02-04T12:02:16.885Z,99483.55
2019-02-04T12:03:18.297Z,99482.09
2019-02-04T12:04:19.767Z,99476.78
2019-02-04T12:05:24.248Z,99475.20